Burnham, Illinois
Current Conditions -  °F | °C
As of 8:35 PM on Sunday 23 Nov 2014 (Local Time) from KGYY Reporting Station
Moderate Rain Moderate Rain  
Wind Chill: 53°   Ceiling: 1700
Heat Index: 53°   Visibility: 10mi
Dew Point: 51°   Wind: 8mph
Humidity: 94%   Direction: 140°SE
Pressure: 29.23"   Gusts: NA
Location:  41.6563°N, 87.5444°W
Report Text: KGYY 240235Z AUTO 14007KT 10SM RA SCT006 BKN017 OVC030 12/11 A2923 RMK AO2 P0003 T01150106
Loading
Personal Weather Stations






























Interactive Weather Map New forecast layout! Learn more

10-Day Weather Forecast

Advertisements
Track Severe Weather on mobile